createdAt,value
2019-02-22T00:02:14.328Z,41.27
2019-02-22T00:04:41.608Z,39.23
2019-02-22T00:07:08.936Z,53.43
2019-02-22T00:09:36.261Z,45.63
2019-02-22T00:12:03.555Z,47.03
2019-02-22T00:14:30.878Z,43.20
2019-02-22T00:17:00.413Z,41.13
2019-02-22T00:19:27.752Z,41.33
2019-02-22T00:21:55.112Z,38.63
2019-02-22T00:24:24.573Z,37.57
2019-02-22T00:26:51.821Z,37.77
2019-02-22T00:29:19.140Z,41.63
2019-02-22T00:31:46.370Z,44.77
2019-02-22T00:34:13.697Z,46.47
2019-02-22T00:36:41.003Z,39.27
2019-02-22T00:41:54.167Z,50.87
2019-02-22T00:44:24.980Z,49.50
2019-02-22T00:46:52.244Z,46.03
2019-02-22T00:49:19.484Z,47.33
2019-02-22T00:51:47.068Z,47.33
2019-02-22T00:54:14.634Z,47.17
2019-02-22T00:56:45.151Z,51.73
2019-02-22T00:59:15.970Z,50.70
2019-02-22T01:01:43.291Z,41.30
2019-02-22T01:04:10.608Z,43.50
2019-02-22T01:06:38.152Z,45.70
2019-02-22T01:09:05.711Z,44.67
2019-02-22T01:11:33.276Z,47.20
2019-02-22T01:14:00.507Z,47.77
2019-02-22T01:16:27.736Z,43.50
2019-02-22T01:18:55.232Z,46.17
2019-02-22T01:21:22.457Z,45.67
2019-02-22T01:23:49.684Z,44.53
2019-02-22T01:26:16.909Z,50.80
2019-02-22T01:28:44.137Z,52.67
2019-02-22T01:31:11.348Z,49.53
2019-02-22T01:33:38.593Z,46.23
2019-02-22T01:36:06.099Z,51.53
2019-02-22T01:38:42.052Z,59.43
2019-02-22T01:41:09.196Z,67.03
2019-02-22T01:43:39.509Z,64.27
2019-02-22T01:46:06.633Z,51.13
2019-02-22T01:48:35.888Z,51.03
2019-02-22T01:51:03.126Z,53.47
2019-02-22T01:53:30.464Z,48.73
2019-02-22T01:55:58.035Z,50.37
2019-02-22T01:58:25.602Z,51.53
2019-02-22T02:00:52.914Z,45.43
2019-02-22T02:03:20.183Z,45.67
2019-02-22T02:05:47.416Z,45.57
2019-02-22T02:08:14.705Z,48.13
2019-02-22T02:10:41.928Z,42.57
2019-02-22T02:13:09.172Z,38.57
2019-02-22T02:15:39.230Z,42.63
2019-02-22T02:18:06.507Z,44.63
2019-02-22T02:20:34.057Z,43.83
2019-02-22T02:23:01.299Z,38.80
2019-02-22T02:25:28.528Z,43.17
2019-02-22T02:27:55.784Z,43.80
2019-02-22T02:30:23.007Z,42.53
2019-02-22T02:32:50.321Z,44.43
2019-02-22T02:35:17.871Z,40.83
2019-02-22T02:37:45.465Z,40.23
2019-02-22T02:40:12.766Z,42.03
2019-02-22T02:42:40.323Z,39.60
2019-02-22T02:45:07.659Z,43.13
2019-02-22T02:47:34.876Z,40.60
2019-02-22T02:50:02.392Z,44.63
2019-02-22T02:52:29.847Z,42.77
2019-02-22T02:54:57.088Z,47.93
2019-02-22T02:57:24.312Z,41.57
2019-02-22T02:59:51.551Z,46.03
2019-02-22T03:02:24.641Z,44.00
2019-02-22T03:04:51.906Z,46.00
2019-02-22T03:07:37.862Z,43.37
2019-02-22T03:10:06.540Z,43.33
2019-02-22T03:12:33.962Z,43.63
2019-02-22T03:15:04.729Z,44.20
2019-02-22T03:17:32.672Z,44.40
2019-02-22T03:19:59.928Z,46.30
2019-02-22T03:22:27.164Z,43.33
2019-02-22T03:24:54.843Z,47.67
2019-02-22T03:27:22.069Z,46.87
2019-02-22T03:29:49.655Z,47.50
2019-02-22T03:32:16.881Z,46.00
2019-02-22T03:34:44.457Z,42.47
2019-02-22T03:37:11.679Z,51.77
2019-02-22T03:39:38.905Z,45.40
2019-02-22T03:42:06.414Z,43.03
2019-02-22T03:44:33.737Z,44.03
2019-02-22T03:47:01.234Z,42.97
2019-02-22T03:49:28.790Z,39.70
2019-02-22T03:51:56.377Z,40.13
2019-02-22T03:54:23.615Z,42.57
2019-02-22T03:56:50.845Z,44.10
2019-02-22T03:59:18.069Z,40.07
2019-02-22T04:01:45.293Z,43.70
2019-02-22T04:04:12.532Z,46.30
2019-02-22T04:06:39.749Z,41.40
2019-02-22T04:09:09.947Z,50.43
2019-02-22T04:11:45.794Z,46.30
2019-02-22T04:14:06.389Z,43.37
2019-02-22T04:16:33.618Z,42.53
2019-02-22T04:19:01.131Z,48.10
2019-02-22T04:21:28.362Z,43.73
2019-02-22T04:23:55.672Z,45.77
2019-02-22T04:26:22.943Z,43.40
2019-02-22T04:28:52.966Z,42.57
2019-02-22T04:31:20.227Z,41.97
2019-02-22T04:33:47.456Z,48.87
2019-02-22T04:36:14.697Z,47.53
2019-02-22T04:38:41.929Z,44.37
2019-02-22T04:41:09.243Z,46.50
2019-02-22T04:43:36.469Z,47.77
2019-02-22T04:46:04.096Z,45.67
2019-02-22T04:48:31.638Z,52.30
2019-02-22T04:50:58.868Z,45.60
2019-02-22T04:53:26.102Z,43.27
2019-02-22T04:55:53.800Z,45.37
2019-02-22T04:58:21.402Z,38.67
2019-02-22T05:00:48.725Z,41.30
2019-02-22T05:03:15.945Z,40.57
2019-02-22T05:05:43.173Z,42.43
2019-02-22T05:08:10.713Z,43.60
2019-02-22T05:10:38.024Z,43.33
2019-02-22T05:13:05.243Z,43.40
2019-02-22T05:15:32.588Z,45.17
2019-02-22T05:18:00.092Z,39.27
2019-02-22T05:20:27.321Z,43.07
2019-02-22T05:23:03.438Z,41.07
2019-02-22T05:25:24.108Z,37.77
2019-02-22T05:27:51.325Z,39.73
2019-02-22T05:30:18.573Z,41.50
2019-02-22T05:32:46.066Z,40.87
2019-02-22T05:35:13.719Z,44.43
2019-02-22T05:37:40.961Z,46.93
2019-02-22T05:40:08.269Z,44.67
2019-02-22T05:42:35.585Z,44.67
2019-02-22T05:45:02.923Z,46.53
2019-02-22T05:47:30.165Z,49.13
2019-02-22T05:49:57.480Z,52.17
2019-02-22T05:52:24.772Z,45.53
2019-02-22T05:54:52.066Z,41.20
2019-02-22T05:57:19.606Z,42.63
2019-02-22T05:59:46.841Z,47.33
2019-02-22T06:02:14.733Z,46.97
2019-02-22T06:04:42.334Z,39.80
2019-02-22T06:07:09.669Z,47.47
2019-02-22T06:09:36.888Z,47.73
2019-02-22T06:12:04.165Z,45.10
2019-02-22T06:14:31.695Z,41.90
2019-02-22T06:16:59.295Z,42.17
2019-02-22T06:19:26.430Z,43.13
2019-02-22T06:21:53.979Z,41.93
2019-02-22T06:24:21.202Z,41.93
2019-02-22T06:26:48.444Z,45.90
2019-02-22T06:29:15.787Z,41.47
2019-02-22T06:31:43.128Z,48.57
2019-02-22T06:34:10.356Z,53.63
2019-02-22T06:36:37.597Z,48.47
2019-02-22T06:39:05.392Z,44.70
2019-02-22T06:41:32.644Z,46.53
2019-02-22T06:43:59.917Z,43.37
2019-02-22T06:46:27.160Z,47.23
2019-02-22T06:48:54.759Z,49.47
2019-02-22T06:51:22.032Z,43.23
2019-02-22T06:53:49.256Z,45.23
2019-02-22T06:56:16.502Z,47.83
2019-02-22T06:58:43.858Z,45.63
2019-02-22T07:01:11.438Z,45.77
2019-02-22T07:03:39.210Z,47.40
2019-02-22T07:06:06.544Z,51.53
2019-02-22T07:08:33.792Z,50.87
2019-02-22T07:11:32.682Z,53.03
2019-02-22T07:14:00.245Z,57.93
2019-02-22T07:16:27.492Z,53.73
2019-02-22T07:18:55.110Z,53.47
2019-02-22T07:21:22.412Z,52.00
2019-02-22T07:23:49.724Z,51.83
2019-02-22T07:26:16.979Z,68.13
2019-02-22T07:28:44.471Z,56.33
2019-02-22T07:31:11.756Z,50.50
2019-02-22T07:33:39.285Z,43.00
2019-02-22T07:36:06.501Z,44.47
2019-02-22T07:38:33.734Z,44.10
2019-02-22T07:41:01.266Z,44.60
2019-02-22T07:43:30.088Z,54.00
2019-02-22T07:45:57.348Z,61.90
2019-02-22T07:48:25.196Z,55.83
2019-02-22T07:50:57.622Z,50.17
2019-02-22T07:53:21.847Z,50.97
2019-02-22T07:55:49.080Z,49.40
2019-02-22T07:58:16.388Z,46.20
2019-02-22T08:00:43.925Z,57.70
2019-02-22T08:03:11.172Z,56.80
2019-02-22T08:05:38.396Z,67.33
2019-02-22T08:08:05.545Z,60.17
2019-02-22T08:10:33.075Z,59.97
2019-02-22T08:13:00.345Z,61.97
2019-02-22T08:15:27.581Z,68.20
2019-02-22T08:17:55.239Z,72.93
2019-02-22T08:20:22.895Z,79.97
2019-02-22T08:22:50.580Z,58.67
2019-02-22T08:25:17.900Z,61.43
2019-02-22T08:27:53.008Z,59.80
2019-02-22T08:30:14.191Z,62.53
2019-02-22T08:32:41.593Z,64.37
2019-02-22T08:35:09.179Z,53.93
2019-02-22T08:37:36.515Z,56.33
2019-02-22T08:40:04.355Z,65.30
2019-02-22T08:42:31.980Z,62.50
2019-02-22T08:44:59.548Z,53.63
2019-02-22T08:47:26.819Z,51.20
2019-02-22T08:49:54.035Z,54.40
2019-02-22T08:52:21.625Z,54.47
2019-02-22T08:54:49.247Z,54.47
2019-02-22T08:57:16.492Z,52.07
2019-02-22T08:59:43.721Z,55.83
2019-02-22T09:02:10.963Z,58.20
2019-02-22T09:04:38.569Z,52.30
2019-02-22T09:07:05.798Z,49.40
2019-02-22T09:09:33.682Z,61.47
2019-02-22T09:12:00.992Z,60.73
2019-02-22T09:14:28.248Z,54.73
2019-02-22T09:16:55.735Z,60.13
2019-02-22T09:19:23.301Z,62.77
2019-02-22T09:21:50.853Z,64.50
2019-02-22T09:24:18.071Z,55.97
2019-02-22T09:26:45.299Z,62.03
2019-02-22T09:29:12.836Z,56.17
2019-02-22T09:31:40.140Z,54.03
2019-02-22T09:34:07.626Z,51.43
2019-02-22T09:36:35.183Z,47.43
2019-02-22T09:39:04.490Z,36.23
2019-02-22T09:41:32.048Z,34.40
2019-02-22T09:43:59.332Z,25.63
2019-02-22T09:46:26.967Z,16.53
2019-02-22T09:48:54.313Z,18.97
2019-02-22T09:51:21.548Z,22.47
2019-02-22T09:53:49.149Z,15.63
2019-02-22T09:56:16.792Z,15.07
2019-02-22T09:58:44.449Z,13.97
2019-02-22T10:01:12.007Z,14.23
2019-02-22T10:03:39.256Z,14.13
2019-02-22T10:06:06.480Z,15.07
2019-02-22T10:08:34.105Z,15.83
2019-02-22T10:11:01.396Z,15.33
2019-02-22T10:13:28.664Z,13.30
2019-02-22T10:15:55.885Z,14.87
2019-02-22T10:18:23.238Z,13.57
2019-02-22T10:20:50.736Z,14.77
2019-02-22T10:23:17.988Z,13.57
2019-02-22T10:25:45.216Z,13.77
2019-02-22T10:28:17.822Z,12.70
2019-02-22T10:30:41.612Z,13.10
2019-02-22T10:33:09.560Z,12.80
2019-02-22T10:35:37.224Z,12.87
2019-02-22T10:38:04.781Z,16.20
2019-02-22T10:40:32.009Z,14.73
2019-02-22T10:42:59.589Z,14.27
2019-02-22T10:45:26.813Z,13.57
2019-02-22T10:47:54.133Z,12.13
2019-02-22T10:50:21.777Z,15.93
2019-02-22T10:52:49.313Z,10.50
2019-02-22T10:55:16.890Z,14.87
2019-02-22T10:57:44.427Z,11.30
2019-02-22T11:00:12.524Z,12.13
2019-02-22T11:02:40.085Z,12.77
2019-02-22T11:05:07.615Z,11.40
2019-02-22T11:07:37.088Z,11.13
2019-02-22T11:10:05.291Z,11.17
2019-02-22T11:12:32.851Z,11.60
2019-02-22T11:15:00.323Z,11.63
2019-02-22T11:17:28.059Z,9.80
2019-02-22T11:19:55.942Z,9.67
2019-02-22T11:22:23.169Z,12.53
2019-02-22T11:24:50.492Z,15.30
2019-02-22T11:27:18.104Z,11.23
2019-02-22T11:29:45.346Z,10.53
2019-02-22T11:32:12.564Z,10.63
2019-02-22T11:34:39.808Z,13.63
2019-02-22T11:37:07.051Z,10.93
2019-02-22T11:39:34.668Z,7.07
2019-02-22T11:42:01.899Z,7.60
2019-02-22T11:44:39.654Z,3.90
2019-02-22T11:46:58.815Z,4.07
2019-02-22T11:49:26.284Z,6.23
2019-02-22T11:51:55.917Z,6.10
2019-02-22T11:54:23.001Z,4.63
2019-02-22T11:56:50.563Z,5.63
2019-02-22T11:59:18.115Z,5.47
2019-02-22T12:01:45.328Z,5.77
2019-02-22T12:04:12.588Z,5.73
2019-02-22T12:06:40.585Z,5.17
2019-02-22T12:09:07.844Z,5.30
2019-02-22T12:11:35.155Z,5.83
2019-02-22T12:14:02.383Z,5.47
2019-02-22T12:16:29.900Z,6.43
2019-02-22T12:18:57.482Z,5.73
2019-02-22T12:21:25.020Z,8.10
2019-02-22T12:23:54.142Z,6.67
2019-02-22T12:26:21.785Z,6.90
2019-02-22T12:28:49.465Z,7.40
2019-02-22T12:31:16.682Z,9.53
2019-02-22T12:33:50.461Z,11.77
2019-02-22T12:36:18.144Z,8.43
2019-02-22T12:38:48.591Z,8.43
2019-02-22T12:41:16.585Z,7.20
2019-02-22T12:43:46.706Z,6.17
2019-02-22T12:46:14.324Z,6.87
2019-02-22T12:48:44.322Z,8.13
2019-02-22T12:51:11.909Z,6.53
2019-02-22T12:53:39.476Z,7.37
2019-02-22T12:56:06.832Z,7.20
2019-02-22T12:58:34.194Z,9.63
2019-02-22T13:01:01.437Z,7.13
2019-02-22T13:03:28.799Z,7.37
2019-02-22T13:05:56.335Z,6.80
2019-02-22T13:08:23.675Z,5.80
2019-02-22T13:10:50.929Z,6.57
2019-02-22T13:13:18.161Z,7.13
2019-02-22T13:15:46.032Z,6.47
2019-02-22T13:18:13.392Z,5.67
2019-02-22T13:20:40.628Z,4.30
2019-02-22T13:23:07.872Z,4.30
2019-02-22T13:25:36.408Z,3.93
2019-02-22T13:28:03.631Z,4.37
2019-02-22T13:30:31.209Z,3.47
2019-02-22T13:32:58.553Z,4.67
2019-02-22T13:35:25.799Z,3.30
2019-02-22T13:37:53.381Z,3.40
2019-02-22T13:40:20.605Z,3.03
2019-02-22T13:42:48.213Z,3.23
2019-02-22T13:45:25.980Z,3.57
2019-02-22T13:47:44.691Z,2.20
2019-02-22T13:50:12.963Z,2.27
2019-02-22T13:52:40.315Z,3.93
2019-02-22T13:55:07.829Z,2.10
2019-02-22T13:57:35.054Z,3.43
2019-02-22T14:00:02.297Z,2.80
2019-02-22T14:02:29.872Z,2.73
2019-02-22T14:04:57.444Z,4.73
2019-02-22T14:07:25.007Z,3.93
2019-02-22T14:09:52.600Z,2.40
2019-02-22T14:12:20.127Z,2.50
2019-02-22T14:14:47.349Z,2.90
2019-02-22T14:17:14.829Z,3.03
2019-02-22T14:19:42.085Z,2.83
2019-02-22T14:22:09.646Z,2.80
2019-02-22T14:24:36.903Z,4.43
2019-02-22T14:27:04.459Z,2.97
2019-02-22T14:29:32.533Z,2.17
2019-02-22T14:32:00.083Z,2.13
2019-02-22T14:34:27.640Z,2.50
2019-02-22T14:36:54.990Z,2.07
2019-02-22T14:39:22.573Z,1.70
2019-02-22T14:41:49.797Z,2.97
2019-02-22T14:44:17.148Z,2.80
2019-02-22T14:46:44.733Z,1.97
2019-02-22T14:49:12.106Z,2.43
2019-02-22T14:51:39.328Z,2.07
2019-02-22T14:54:06.988Z,2.53
2019-02-22T14:56:34.223Z,2.07
2019-02-22T14:59:01.796Z,2.93
2019-02-22T15:01:29.024Z,4.17
2019-02-22T15:03:56.920Z,3.30
2019-02-22T15:06:24.172Z,3.20
2019-02-22T15:08:51.400Z,6.83
2019-02-22T15:11:18.621Z,2.37
2019-02-22T15:13:45.846Z,2.77
2019-02-22T15:16:32.620Z,3.97
2019-02-22T15:19:00.193Z,2.30
2019-02-22T15:21:27.852Z,3.20
2019-02-22T15:23:55.103Z,2.60
2019-02-22T15:26:22.971Z,3.10
2019-02-22T15:28:50.553Z,1.87
2019-02-22T15:31:20.747Z,6.07
2019-02-22T15:33:48.178Z,2.23
2019-02-22T15:36:16.285Z,3.47
2019-02-22T15:38:43.951Z,7.63
2019-02-22T15:41:11.176Z,6.80
2019-02-22T15:43:38.445Z,5.97
2019-02-22T15:46:12.280Z,7.37
2019-02-22T15:48:35.197Z,3.33
2019-02-22T15:51:07.267Z,2.93
2019-02-22T15:53:34.126Z,9.90
2019-02-22T15:56:13.801Z,8.43
2019-02-22T15:58:41.068Z,5.67
2019-02-22T16:01:08.297Z,3.70
2019-02-22T16:03:53.761Z,11.30
2019-02-22T16:06:25.904Z,6.00
2019-02-22T16:08:53.220Z,7.33
2019-02-22T16:11:22.560Z,13.63
2019-02-22T16:13:55.656Z,9.20
2019-02-22T16:16:23.632Z,6.13
2019-02-22T16:18:51.372Z,7.47
2019-02-22T16:21:18.601Z,5.87
2019-02-22T16:23:46.184Z,11.40
2019-02-22T16:26:17.898Z,7.43
2019-02-22T16:28:45.505Z,9.50
2019-02-22T16:31:12.733Z,8.97
2019-02-22T16:33:39.967Z,8.87
2019-02-22T16:36:07.192Z,7.83
2019-02-22T16:38:34.709Z,9.13
2019-02-22T16:41:01.960Z,10.93
2019-02-22T16:43:29.520Z,9.37
2019-02-22T16:45:56.797Z,8.80
2019-02-22T16:48:24.336Z,32.23
2019-02-22T16:50:51.924Z,32.27
2019-02-22T16:53:19.236Z,34.37
2019-02-22T16:55:46.497Z,10.93
2019-02-22T16:58:14.055Z,8.37
2019-02-22T17:00:41.617Z,11.17
2019-02-22T17:03:09.176Z,10.53
2019-02-22T17:05:36.530Z,7.87
2019-02-22T17:08:03.664Z,8.87
2019-02-22T17:10:30.931Z,7.43
2019-02-22T17:12:58.153Z,8.20
2019-02-22T17:15:25.755Z,8.87
2019-02-22T17:17:53.396Z,8.93
2019-02-22T17:20:20.628Z,7.37
2019-02-22T17:22:47.951Z,27.07
2019-02-22T17:25:15.224Z,27.03
2019-02-22T17:27:42.456Z,19.77
2019-02-22T17:30:11.495Z,14.63
2019-02-22T17:32:39.065Z,14.27
2019-02-22T17:35:06.312Z,11.20
2019-02-22T17:37:33.548Z,26.30
2019-02-22T17:40:01.128Z,11.27
2019-02-22T17:42:28.684Z,15.90
2019-02-22T17:44:55.903Z,11.40
2019-02-22T17:47:23.499Z,11.43
2019-02-22T17:49:50.718Z,9.30
2019-02-22T17:52:17.952Z,10.40
2019-02-22T17:54:45.175Z,10.40
2019-02-22T17:57:13.344Z,14.17
2019-02-22T17:59:40.879Z,12.27
2019-02-22T18:02:08.125Z,13.47
2019-02-22T18:04:35.356Z,15.27
2019-02-22T18:07:02.599Z,18.60
2019-02-22T18:09:30.091Z,16.83
2019-02-22T18:11:57.316Z,13.90
2019-02-22T18:14:26.156Z,13.53
2019-02-22T18:16:53.688Z,11.50
2019-02-22T18:19:21.248Z,10.93
2019-02-22T18:21:48.483Z,11.23
2019-02-22T18:24:15.888Z,10.47
2019-02-22T18:26:43.624Z,12.30
2019-02-22T18:29:11.184Z,12.93
2019-02-22T18:31:38.963Z,14.27
2019-02-22T18:34:06.318Z,11.83
2019-02-22T18:36:33.564Z,11.70
2019-02-22T18:39:01.117Z,14.43
2019-02-22T18:41:28.680Z,18.40
2019-02-22T18:43:56.331Z,18.23
2019-02-22T18:46:23.605Z,15.60
2019-02-22T18:48:51.249Z,16.17
2019-02-22T18:51:18.903Z,13.03
2019-02-22T18:53:46.465Z,14.77
2019-02-22T18:56:13.792Z,14.93
2019-02-22T18:58:41.136Z,14.07
2019-02-22T19:01:08.735Z,12.87
2019-02-22T19:03:36.289Z,11.80
2019-02-22T19:06:04.263Z,12.67
2019-02-22T19:08:32.581Z,15.10
2019-02-22T19:11:00.044Z,15.07
2019-02-22T19:13:27.549Z,13.90
2019-02-22T19:15:55.533Z,13.50
2019-02-22T19:18:23.184Z,14.47
2019-02-22T19:20:50.405Z,13.30
2019-02-22T19:23:18.321Z,13.60
2019-02-22T19:25:45.543Z,13.83
2019-02-22T19:28:12.772Z,15.53
2019-02-22T19:30:40.001Z,18.63
2019-02-22T19:33:07.832Z,16.17
2019-02-22T19:35:35.142Z,16.60
2019-02-22T19:38:02.732Z,16.67
2019-02-22T19:40:29.959Z,15.77
2019-02-22T19:42:57.539Z,15.23
2019-02-22T19:45:24.807Z,14.30
2019-02-22T19:47:52.044Z,19.50
2019-02-22T19:50:19.608Z,13.27
2019-02-22T19:52:47.165Z,15.87
2019-02-22T19:55:14.436Z,13.53
2019-02-22T19:57:41.994Z,13.70
2019-02-22T20:00:11.632Z,12.90
2019-02-22T20:02:38.863Z,15.67
2019-02-22T20:05:06.495Z,14.93
2019-02-22T20:07:33.728Z,17.57
2019-02-22T20:10:00.962Z,16.30
2019-02-22T20:12:29.226Z,15.13
2019-02-22T20:14:57.041Z,15.60
2019-02-22T20:17:24.272Z,17.27
2019-02-22T20:19:51.852Z,17.90
2019-02-22T20:22:19.131Z,16.97
2019-02-22T20:24:46.353Z,15.77
2019-02-22T20:27:13.918Z,18.60
2019-02-22T20:29:41.468Z,19.77
2019-02-22T20:32:09.027Z,17.93
2019-02-22T20:34:36.255Z,22.33
2019-02-22T20:37:03.652Z,23.63
2019-02-22T20:39:30.968Z,17.10
2019-02-22T20:41:58.566Z,21.63
2019-02-22T20:44:25.781Z,15.80
2019-02-22T20:46:53.355Z,20.80
2019-02-22T20:49:20.584Z,17.93
2019-02-22T20:51:48.069Z,18.97
2019-02-22T20:54:17.173Z,20.90
2019-02-22T20:56:44.470Z,21.80
2019-02-22T20:59:12.106Z,21.97
2019-02-22T21:01:39.321Z,19.17
2019-02-22T21:04:06.741Z,18.67
2019-02-22T21:06:33.955Z,17.97
2019-02-22T21:09:01.229Z,18.53
2019-02-22T21:11:28.557Z,18.20
2019-02-22T21:13:55.817Z,18.87
2019-02-22T21:16:26.338Z,17.67
2019-02-22T21:18:53.879Z,22.47
2019-02-22T21:21:21.540Z,20.17
2019-02-22T21:23:48.809Z,20.47
2019-02-22T21:26:16.072Z,20.40
2019-02-22T21:28:43.710Z,20.00
2019-02-22T21:31:10.932Z,26.00
2019-02-22T21:33:38.488Z,21.63
2019-02-22T21:36:05.709Z,19.77
2019-02-22T21:38:32.968Z,21.57
2019-02-22T21:41:00.629Z,22.50
2019-02-22T21:43:28.235Z,24.90
2019-02-22T21:45:55.465Z,22.00
2019-02-22T21:48:27.639Z,24.87
2019-02-22T21:50:52.243Z,25.10
2019-02-22T21:53:19.516Z,24.20
2019-02-22T21:55:47.063Z,25.17
2019-02-22T21:58:14.336Z,23.30
2019-02-22T22:00:41.553Z,22.17
2019-02-22T22:03:09.152Z,20.50
2019-02-22T22:05:36.702Z,22.27
2019-02-22T22:08:04.243Z,20.57
2019-02-22T22:10:31.801Z,22.63
2019-02-22T22:12:58.986Z,20.77
2019-02-22T22:15:27.661Z,22.33
2019-02-22T22:17:55.296Z,24.73
2019-02-22T22:20:22.858Z,21.97
2019-02-22T22:22:50.160Z,22.80
2019-02-22T22:25:17.384Z,24.70
2019-02-22T22:27:44.918Z,28.90
2019-02-22T22:30:12.574Z,24.90
2019-02-22T22:32:40.139Z,23.40
2019-02-22T22:35:08.971Z,28.73
2019-02-22T22:37:36.196Z,24.97
2019-02-22T22:40:03.940Z,23.70
2019-02-22T22:42:31.495Z,22.90
2019-02-22T22:44:59.057Z,26.43
2019-02-22T22:47:27.619Z,23.23
2019-02-22T22:49:59.296Z,22.83
2019-02-22T22:52:26.520Z,20.77
2019-02-22T22:54:54.110Z,22.10
2019-02-22T22:57:21.334Z,25.30
2019-02-22T22:59:48.664Z,26.17
2019-02-22T23:02:15.884Z,25.53
2019-02-22T23:04:43.147Z,24.63
2019-02-22T23:07:10.463Z,32.13
2019-02-22T23:09:38.024Z,23.80
2019-02-22T23:12:05.504Z,30.33
2019-02-22T23:14:32.835Z,25.63
2019-02-22T23:17:00.103Z,24.87
2019-02-22T23:19:27.653Z,26.70
2019-02-22T23:21:55.208Z,22.70
2019-02-22T23:24:22.875Z,29.20
2019-02-22T23:26:50.096Z,29.10
2019-02-22T23:29:17.335Z,26.37
2019-02-22T23:31:44.572Z,26.37
2019-02-22T23:34:11.852Z,29.93
2019-02-22T23:36:39.436Z,31.73
2019-02-22T23:39:07.917Z,28.27
2019-02-22T23:41:35.138Z,26.47
2019-02-22T23:44:02.937Z,31.60
2019-02-22T23:46:30.494Z,32.37
2019-02-22T23:48:57.737Z,36.00
2019-02-22T23:51:25.304Z,38.03
2019-02-22T23:53:52.521Z,34.60
2019-02-22T23:56:20.116Z,37.87
2019-02-22T23:58:47.335Z,37.60
